• Join FlightAware (Why Join?)
  • Login
  • US Flag 
03:14AM EDT


 

Airport Tracker/Info


-or-


 

Live Flight TrackerFlight Track Log ✈ SWA1834 ✈ 30-Jun-2013 ✈ KPHL - KSTL

Flight Track Log - Related Links

Times and Time Zones

All times are in EDT time to prevent confusion due to time zone crossing. See the SWA1834 flight status page for this flight to view local times or setup timezone preferences in your user account.

Time Position Orientation Groundspeed Altitude Reporting Facility
EDT Latitude Longitude Course Direction KTS MPH feet Rate Location/Type
08:38AM 39.8833 -75.2000 72° East 158 182 1,000  Level Philadelphia TRACON
08:39AM 39.9000 -75.1333 72° East 231 266 3,000 1,860 Climbing Philadelphia TRACON
08:40AM 39.9500 -75.0500 52° Northeast 289 333 5,000 2,340 Climbing Philadelphia TRACON
08:41AM 40.0000 -75.1000 323° Northwest 296 341 7,500 2,580 Climbing Philadelphia TRACON
08:42AM 40.0000 -75.1833 270° West 274 315 10,000 1,140 Climbing Philadelphia TRACON
08:43AM 39.9833 -75.3000 259° West 272 313 10,000  Level Philadelphia TRACON
08:44AM 39.9583 -75.4425 257° West 303 349 10,000 540 Level New York Center
08:45AM 39.9431 -75.5633 261° West 331 381 11,300 2,280 Climbing New York Center
08:46AM 39.9442 -75.6906 271° West 343 395 14,600 2,880 Climbing New York Center
08:47AM 39.9428 -75.8231 269° West 360 414 17,200 2,520 Climbing New York Center
08:48AM 39.9431 -75.9586 270° West 370 426 19,800 2,340 Climbing New York Center
08:49AM 39.9408 -76.1047 269° West 391 450 22,000 2,100 Climbing New York Center
08:50AM 39.9347 -76.2342 267° West 397 457 24,000 2,040 Climbing New York Center
08:51AM 39.9339 -76.3886 270° West 416 479 26,100 1,980 Climbing New York Center
08:52AM 39.9306 -76.5425 268° West 422 486 28,000 2,100 Climbing New York Center
08:53AM 39.9297 -76.6886 270° West 422 486 30,300 1,860 Climbing New York Center
08:54AM 39.9344 -76.8408 272° West 416 479 31,800 1,260 Climbing New York Center
08:55AM 39.9411 -76.9903 273° West 416 479 32,900 1,500 Climbing New York Center
08:56AM 39.9458 -77.1397 272° West 421 484 34,900 1,680 Climbing New York Center
08:58AM 39.9564 -77.4194 273° West 400 460 38,000 1,020 Climbing Cleveland Center
08:59AM 39.9622 -77.5575 273° West 388 447 38,000  Level Cleveland Center
09:00AM 39.9658 -77.6956 272° West 383 441 38,000  Level Cleveland Center
09:01AM 39.9714 -77.8361 273° West 383 441 38,000  Level Cleveland Center
09:02AM 39.9747 -77.9714 272° West 383 441 38,000  Level Cleveland Center
09:03AM 39.9797 -78.1067 273° West 383 441 38,000  Level Cleveland Center
09:04AM 39.9828 -78.2422 272° West 383 441 38,000  Level Cleveland Center
09:05AM 39.9789 -78.3722 268° West 378 435 38,000  Level Cleveland Center
09:06AM 39.9836 -78.5075 273° West 378 435 38,000  Level Cleveland Center
09:07AM 39.9861 -78.6403 271° West 378 435 38,000  Level Cleveland Center
09:08AM 39.9881 -78.7731 271° West 373 429 38,000  Level Cleveland Center
09:09AM 39.9922 -78.9083 272° West 373 429 38,000  Level Cleveland Center
09:10AM 39.9983 -79.0411 273° West 367 422 38,000  Level Cleveland Center
09:11AM 40.0022 -79.1739 272° West 367 422 38,000  Level Cleveland Center
09:12AM 40.0036 -79.3039 271° West 362 417 38,000  Level Cleveland Center
09:13AM 40.0050 -79.4367 271° West 362 417 38,000  Level Cleveland Center
09:14AM 40.0064 -79.5667 271° West 362 417 38,000  Level Cleveland Center
09:15AM 40.0094 -79.6994 272° West 362 417 38,000  Level Cleveland Center
09:16AM 40.0106 -79.8294 271° West 362 417 38,000  Level Cleveland Center
09:17AM 40.0114 -79.9733 270° West 362 417 38,000  Level Cleveland Center
09:18AM 40.0142 -80.1061 272° West 362 417 38,000  Level Cleveland Center
09:19AM 40.0167 -80.2361 271° West 362 417 38,000  Level Cleveland Center
09:20AM 40.0169 -80.3689 270° West 362 417 38,000  Level Cleveland Center
09:21AM 40.0172 -80.5017 270° West 362 417 38,000  Level Cleveland Center
09:22AM 40.0172 -80.6372 270° West 362 417 38,000  Level Cleveland Center
09:23AM 40.0192 -80.7700 271° West 368 423 38,000  Level Cleveland Center
09:24AM 40.0189 -80.9056 270° West 368 423 38,000  Level Cleveland Center
09:25AM 40.0147 -80.9850 266° West 372 428 38,000  Level Indianapolis Center
09:26AM 40.0128 -81.1206 269° West 371 427 38,000  Level Indianapolis Center
09:27AM 40.0106 -81.2569 269° West 371 427 38,000  Level Indianapolis Center
09:28AM 40.0078 -81.3928 269° West 371 427 38,000  Level Indianapolis Center
09:29AM 40.0050 -81.5522 269° West 374 430 38,000  Level Indianapolis Center
09:30AM 40.0017 -81.6886 268° West 373 429 38,000  Level Indianapolis Center
09:31AM 39.9989 -81.8183 268° West 375 432 38,000  Level Indianapolis Center
09:32AM 39.9967 -81.9533 269° West 372 428 38,000  Level Indianapolis Center
09:33AM 39.9928 -82.0889 268° West 371 427 38,000  Level Indianapolis Center
09:34AM 39.9897 -82.2247 268° West 372 428 38,000  Level Indianapolis Center
09:35AM 39.9867 -82.3622 268° West 375 432 38,000  Level Indianapolis Center
09:36AM 39.9817 -82.5228 268° West 378 435 38,000  Level Indianapolis Center
09:37AM 39.9781 -82.6608 268° West 378 435 38,000  Level Indianapolis Center
09:38AM 39.9744 -82.8011 268° West 385 443 38,000  Level Indianapolis Center
09:39AM 39.9692 -82.9436 267° West 389 448 38,000  Level Indianapolis Center
09:40AM 39.9653 -83.0850 268° West 390 449 38,000  Level Indianapolis Center
09:41AM 39.9631 -83.2281 269° West 393 452 38,000  Level Indianapolis Center
09:42AM 39.9578 -83.3719 267° West 397 457 38,000  Level Indianapolis Center
09:43AM 39.9522 -83.5375 268° West 398 458 38,000  Level Indianapolis Center
09:44AM 39.9453 -83.6794 266° West 396 456 38,000  Level Indianapolis Center
09:45AM 39.9406 -83.8228 268° West 395 455 38,000  Level Indianapolis Center
09:46AM 39.9350 -83.9678 267° West 398 458 38,000  Level Indianapolis Center
09:48AM 39.9286 -84.1147 267° West 403 464 38,000  Level Indianapolis Center
09:49AM 39.9233 -84.2633 267° West 407 468 38,000  Level Indianapolis Center
09:50AM 39.9164 -84.4142 267° West 412 474 38,000  Level Indianapolis Center
09:51AM 39.9089 -84.5925 267° West 420 483 38,000  Level Indianapolis Center
09:52AM 39.9011 -84.7453 266° West 420 483 38,000  Level Indianapolis Center
09:53AM 39.8928 -84.9058 266° West 422 486 38,000  Level Indianapolis Center
09:54AM 39.8867 -85.0586 267° West 424 488 38,000  Level Indianapolis Center
09:55AM 39.8783 -85.2125 266° West 425 489 38,000  Level Indianapolis Center
09:56AM 39.8694 -85.3656 266° West 426 490 38,000  Level Indianapolis Center
09:57AM 39.8431 -85.5158 257° West 425 489 38,000  Level Indianapolis Center
09:58AM 39.8189 -85.6642 258° West 422 486 38,000  Level Indianapolis Center
09:59AM 39.7931 -85.8136 257° West 424 488 38,000  Level Indianapolis Center
10:00AM 39.7628 -85.9922 258° West 423 487 38,000  Level Indianapolis Center
10:01AM 39.7369 -86.1428 257° West 424 488 38,000  Level Indianapolis Center
10:02AM 39.7106 -86.2969 258° West 426 490 38,000  Level Indianapolis Center
10:03AM 39.6828 -86.4556 257° West 428 493 38,000 -180 Level Indianapolis Center
10:04AM 39.6564 -86.6058 257° West 428 493 37,700 -600 Descending Indianapolis Center
10:05AM 39.6286 -86.7608 257° West 439 505 36,800 -960 Descending Indianapolis Center
10:06AM 39.6006 -86.9181 257° West 446 513 35,800 -960 Descending Indianapolis Center
10:07AM 39.5714 -87.0786 257° West 458 527 34,900 -900 Descending Indianapolis Center
10:08AM 39.5419 -87.2419 257° West 465 535 34,000 -480 Descending Indianapolis Center
10:09AM 39.5125 -87.3994 256° West 453 521 34,000  Level Indianapolis Center
10:10AM 39.4783 -87.5822 256° West 438 504 34,000  Level Indianapolis Center
10:11AM 39.4506 -87.7347 257° West 437 503 34,000 -540 Level Indianapolis Center
10:12AM 39.4214 -87.8875 256° West 438 504 33,000 -1,260 Descending Indianapolis Center
10:13AM 39.3925 -88.0414 256° West 440 506 31,500 -1,200 Descending Indianapolis Center
10:14AM 39.3567 -88.1908 253° West 448 516 30,600 -1,080 Descending Indianapolis Center
10:15AM 39.3067 -88.3744 251° West 451 519 29,400 -1,080 Descending Indianapolis Center
10:16AM 39.2731 -88.4967 250° West 445 512 28,600 -1,380 Descending Kansas City Center
10:17AM 39.2306 -88.6572 251° West 435 501 26,700 -1,980 Descending Kansas City Center
10:18AM 39.1928 -88.7969 251° West 421 484 24,600 -2,040 Descending Kansas City Center
10:19AM 39.1553 -88.9331 250° West 409 471 22,500 -2,160 Descending Kansas City Center
10:20AM 39.1164 -89.0794 251° West 392 451 20,200 -2,220 Descending Kansas City Center
10:21AM 39.0803 -89.2194 252° West 385 443 18,000 -2,100 Descending Kansas City Center
10:22AM 39.0519 -89.3478 254° West 375 432 15,900 -2,040 Descending Kansas City Center
10:23AM 39.0217 -89.4817 254° West 364 419 13,800 -1,980 Descending Kansas City Center
10:25AM 38.9911 -89.6019 252° West 356 410 11,900 -1,680 Descending Kansas City Center
10:26AM 38.9206 -89.6894 224° Southwest 350 403 10,400 -1,320 Descending Kansas City Center
10:27AM 38.8597 -89.7639 224° Southwest 330 380 9,300 -1,200 Descending Kansas City Center
10:28AM 38.8006 -89.8400 225° Southwest 309 356 8,000 -1,380 Descending Kansas City Center
10:29AM 38.7419 -89.9150 225° Southwest 301 346 6,500 -1,500 Descending Kansas City Center
10:30AM 38.6731 -90.0042 225° Southwest 296 341 5,000 -1,140 Descending Kansas City Center
10:31AM 38.6408 -90.0783 241° Southwest 275 316 4,200 -840 Descending Kansas City Center
10:32AM 38.6497 -90.1633 278° West 252 290 3,400 -780 Descending Kansas City Center
10:33AM 38.6789 -90.2178 304° West 207 238 2,700 -780 Descending Kansas City Center
10:34AM 38.7028 -90.2675 302° West 183 211 1,900 -780 Descending Kansas City Center
10:35AM 38.7231 -90.3078 303° West 154 177 1,200 -660 Descending Kansas City Center
10:36AM 38.7453 -90.3533 302° West 146 168 600 -600 Descending Kansas City Center
10:38AM 38.7333 -90.3667 169° South  Level FlightAware Approximate